James Creek, Pennsylvania
Current Conditions -  °F | °C
As of 1:15 AM on Saturday 29 Nov 2014 (Local Time) from KAOO Reporting Station
Light Snow Light Snow  
Wind Chill: 25°   Ceiling: 2800
Heat Index: 25°   Visibility: 2.5mi
Dew Point: 18°   Wind: 3mph
Humidity: 75%   Direction: 170°S
Pressure: 30.19"   Gusts: NA
Location:  40.39°N, 78.17°W
Report Text: KAOO 290615Z AUTO 17003KT 2 1/2SM -SN OVC028 M04/M08 A3019 RMK AO2 SNB04 P0000 T10391078
Loading
Personal Weather Stations






























Interactive Weather Map New forecast layout! Learn more

10-Day Weather Forecast

Advertisements
Track Severe Weather on mobile